sensor_id;sensor_type;location;lat;lon;timestamp;P1;durP1;ratioP1;P2;durP2;ratioP2
49396;SDS011;35615;41.410;2.194;2022-10-16T00:00:15;23.23;;;10.25;;
49396;SDS011;35615;41.410;2.194;2022-10-16T00:02:42;18.08;;;10.40;;
49396;SDS011;35615;41.410;2.194;2022-10-16T00:05:09;17.13;;;9.48;;
49396;SDS011;35615;41.410;2.194;2022-10-16T00:07:37;21.38;;;11.13;;
49396;SDS011;35615;41.410;2.194;2022-10-16T00:10:04;17.45;;;10.02;;
49396;SDS011;35615;41.410;2.194;2022-10-16T00:12:32;20.33;;;9.70;;
49396;SDS011;35615;41.410;2.194;2022-10-16T00:14:59;23.13;;;9.77;;
49396;SDS011;35615;41.410;2.194;2022-10-16T00:17:27;18.73;;;10.10;;
49396;SDS011;35615;41.410;2.194;2022-10-16T00:19:55;16.17;;;9.75;;
49396;SDS011;35615;41.410;2.194;2022-10-16T00:22:23;21.83;;;10.30;;
49396;SDS011;35615;41.410;2.194;2022-10-16T00:24:51;19.17;;;9.57;;
49396;SDS011;35615;41.410;2.194;2022-10-16T00:27:18;14.82;;;9.75;;
49396;SDS011;35615;41.410;2.194;2022-10-16T00:29:49;23.95;;;9.98;;
49396;SDS011;35615;41.410;2.194;2022-10-16T00:32:21;18.55;;;9.95;;
49396;SDS011;35615;41.410;2.194;2022-10-16T00:34:49;18.58;;;10.35;;
49396;SDS011;35615;41.410;2.194;2022-10-16T00:37:16;18.65;;;9.82;;
49396;SDS011;35615;41.410;2.194;2022-10-16T00:39:43;19.95;;;10.43;;
49396;SDS011;35615;41.410;2.194;2022-10-16T00:42:14;18.63;;;10.77;;
49396;SDS011;35615;41.410;2.194;2022-10-16T00:44:50;17.27;;;10.80;;
49396;SDS011;35615;41.410;2.194;2022-10-16T00:47:21;19.00;;;12.18;;
49396;SDS011;35615;41.410;2.194;2022-10-16T00:52:38;22.50;;;11.63;;
49396;SDS011;35615;41.410;2.194;2022-10-16T00:55:10;20.93;;;12.60;;
49396;SDS011;35615;41.410;2.194;2022-10-16T00:57:38;24.75;;;12.73;;
49396;SDS011;35615;41.410;2.194;2022-10-16T01:00:07;26.42;;;13.50;;
49396;SDS011;35615;41.410;2.194;2022-10-16T01:02:36;27.75;;;14.27;;
49396;SDS011;35615;41.410;2.194;2022-10-16T01:05:03;20.10;;;13.13;;
49396;SDS011;35615;41.410;2.194;2022-10-16T01:07:36;26.30;;;14.73;;
49396;SDS011;35615;41.410;2.194;2022-10-16T01:10:36;24.88;;;15.27;;
49396;SDS011;35615;41.410;2.194;2022-10-16T01:15:55;31.17;;;16.77;;
49396;SDS011;35615;41.410;2.194;2022-10-16T01:27:06;32.88;;;16.77;;
49396;SDS011;35615;41.410;2.194;2022-10-16T01:32:32;29.20;;;16.85;;
49396;SDS011;35615;41.410;2.194;2022-10-16T01:35:20;33.20;;;16.70;;
49396;SDS011;35615;41.410;2.194;2022-10-16T01:38:14;28.17;;;15.80;;
49396;SDS011;35615;41.410;2.194;2022-10-16T01:40:46;27.23;;;15.95;;
49396;SDS011;35615;41.410;2.194;2022-10-16T01:43:22;29.47;;;15.13;;
49396;SDS011;35615;41.410;2.194;2022-10-16T01:45:54;21.50;;;14.88;;
49396;SDS011;35615;41.410;2.194;2022-10-16T01:48:22;29.02;;;15.32;;
49396;SDS011;35615;41.410;2.194;2022-10-16T01:50:57;33.60;;;16.30;;
49396;SDS011;35615;41.410;2.194;2022-10-16T01:53:30;28.33;;;16.05;;
49396;SDS011;35615;41.410;2.194;2022-10-16T01:55:59;30.58;;;16.58;;
49396;SDS011;35615;41.410;2.194;2022-10-16T01:58:28;26.38;;;15.32;;
49396;SDS011;35615;41.410;2.194;2022-10-16T02:01:01;33.35;;;16.80;;
49396;SDS011;35615;41.410;2.194;2022-10-16T02:03:31;26.80;;;16.25;;
49396;SDS011;35615;41.410;2.194;2022-10-16T02:06:01;31.80;;;17.25;;
49396;SDS011;35615;41.410;2.194;2022-10-16T02:08:29;28.85;;;16.52;;
49396;SDS011;35615;41.410;2.194;2022-10-16T02:10:57;30.30;;;15.98;;
49396;SDS011;35615;41.410;2.194;2022-10-16T02:13:31;32.95;;;17.30;;
49396;SDS011;35615;41.410;2.194;2022-10-16T02:16:04;32.42;;;16.92;;
49396;SDS011;35615;41.410;2.194;2022-10-16T02:18:32;26.60;;;15.82;;
49396;SDS011;35615;41.410;2.194;2022-10-16T02:21:00;31.27;;;15.82;;
49396;SDS011;35615;41.410;2.194;2022-10-16T02:26:09;26.27;;;15.82;;
49396;SDS011;35615;41.410;2.194;2022-10-16T02:31:12;23.15;;;14.30;;
49396;SDS011;35615;41.410;2.194;2022-10-16T02:33:43;23.27;;;14.55;;
49396;SDS011;35615;41.410;2.194;2022-10-16T02:36:13;25.20;;;15.48;;
49396;SDS011;35615;41.410;2.194;2022-10-16T02:38:40;31.80;;;19.23;;
49396;SDS011;35615;41.410;2.194;2022-10-16T02:41:08;29.15;;;16.52;;
49396;SDS011;35615;41.410;2.194;2022-10-16T02:43:38;28.27;;;16.17;;
49396;SDS011;35615;41.410;2.194;2022-10-16T02:46:05;31.45;;;14.50;;
49396;SDS011;35615;41.410;2.194;2022-10-16T02:48:32;27.90;;;15.40;;
49396;SDS011;35615;41.410;2.194;2022-10-16T02:50:59;26.00;;;15.55;;
49396;SDS011;35615;41.410;2.194;2022-10-16T02:53:27;30.92;;;15.43;;
49396;SDS011;35615;41.410;2.194;2022-10-16T02:55:54;25.65;;;15.30;;
49396;SDS011;35615;41.410;2.194;2022-10-16T02:58:21;32.03;;;16.52;;
49396;SDS011;35615;41.410;2.194;2022-10-16T03:01:07;28.23;;;14.60;;
49396;SDS011;35615;41.410;2.194;2022-10-16T03:03:35;30.85;;;15.93;;
49396;SDS011;35615;41.410;2.194;2022-10-16T03:06:03;31.38;;;15.75;;
49396;SDS011;35615;41.410;2.194;2022-10-16T03:08:37;23.27;;;14.73;;
49396;SDS011;35615;41.410;2.194;2022-10-16T03:11:06;24.25;;;13.65;;
49396;SDS011;35615;41.410;2.194;2022-10-16T03:13:36;26.40;;;14.40;;
49396;SDS011;35615;41.410;2.194;2022-10-16T03:16:05;30.20;;;15.48;;
49396;SDS011;35615;41.410;2.194;2022-10-16T03:18:33;26.73;;;14.65;;
49396;SDS011;35615;41.410;2.194;2022-10-16T03:21:06;29.70;;;14.98;;
49396;SDS011;35615;41.410;2.194;2022-10-16T03:23:34;24.65;;;14.27;;
49396;SDS011;35615;41.410;2.194;2022-10-16T03:26:04;27.95;;;14.93;;
49396;SDS011;35615;41.410;2.194;2022-10-16T03:28:33;33.85;;;16.48;;
49396;SDS011;35615;41.410;2.194;2022-10-16T03:31:01;19.40;;;14.45;;
49396;SDS011;35615;41.410;2.194;2022-10-16T03:33:29;22.90;;;14.90;;
49396;SDS011;35615;41.410;2.194;2022-10-16T03:35:57;24.42;;;14.27;;
49396;SDS011;35615;41.410;2.194;2022-10-16T03:38:25;24.13;;;15.10;;
49396;SDS011;35615;41.410;2.194;2022-10-16T03:40:55;23.50;;;14.32;;
49396;SDS011;35615;41.410;2.194;2022-10-16T03:43:25;25.35;;;15.20;;
49396;SDS011;35615;41.410;2.194;2022-10-16T03:45:55;32.92;;;15.55;;
49396;SDS011;35615;41.410;2.194;2022-10-16T03:48:23;23.63;;;14.35;;
49396;SDS011;35615;41.410;2.194;2022-10-16T03:50:54;28.88;;;15.55;;
49396;SDS011;35615;41.410;2.194;2022-10-16T03:53:22;27.88;;;15.00;;
49396;SDS011;35615;41.410;2.194;2022-10-16T03:55:49;27.25;;;14.65;;
49396;SDS011;35615;41.410;2.194;2022-10-16T03:58:17;26.15;;;14.75;;
49396;SDS011;35615;41.410;2.194;2022-10-16T04:00:48;25.01;;;13.75;;
49396;SDS011;35615;41.410;2.194;2022-10-16T04:03:16;30.70;;;16.77;;
49396;SDS011;35615;41.410;2.194;2022-10-16T04:05:46;28.88;;;15.55;;
49396;SDS011;35615;41.410;2.194;2022-10-16T04:08:17;26.17;;;15.40;;
49396;SDS011;35615;41.410;2.194;2022-10-16T04:10:49;25.55;;;14.70;;
49396;SDS011;35615;41.410;2.194;2022-10-16T04:13:19;24.63;;;15.10;;
49396;SDS011;35615;41.410;2.194;2022-10-16T04:15:47;25.52;;;15.98;;
49396;SDS011;35615;41.410;2.194;2022-10-16T04:18:17;28.00;;;15.95;;
49396;SDS011;35615;41.410;2.194;2022-10-16T04:20:47;27.33;;;15.68;;
49396;SDS011;35615;41.410;2.194;2022-10-16T04:23:16;37.35;;;16.95;;
49396;SDS011;35615;41.410;2.194;2022-10-16T04:25:44;24.58;;;15.05;;
49396;SDS011;35615;41.410;2.194;2022-10-16T04:28:15;27.35;;;17.02;;
49396;SDS011;35615;41.410;2.194;2022-10-16T04:30:43;26.65;;;17.48;;
49396;SDS011;35615;41.410;2.194;2022-10-16T04:33:11;29.60;;;17.67;;
49396;SDS011;35615;41.410;2.194;2022-10-16T04:35:39;30.27;;;18.27;;
49396;SDS011;35615;41.410;2.194;2022-10-16T04:38:09;26.17;;;17.77;;
49396;SDS011;35615;41.410;2.194;2022-10-16T04:40:37;35.90;;;18.92;;
49396;SDS011;35615;41.410;2.194;2022-10-16T04:43:06;32.88;;;17.80;;
49396;SDS011;35615;41.410;2.194;2022-10-16T04:45:37;34.70;;;19.13;;
49396;SDS011;35615;41.410;2.194;2022-10-16T04:48:05;33.10;;;18.10;;
49396;SDS011;35615;41.410;2.194;2022-10-16T04:50:32;30.50;;;18.90;;
49396;SDS011;35615;41.410;2.194;2022-10-16T04:53:04;30.80;;;18.20;;
49396;SDS011;35615;41.410;2.194;2022-10-16T04:55:32;29.42;;;18.90;;
49396;SDS011;35615;41.410;2.194;2022-10-16T04:58:00;38.08;;;20.08;;
49396;SDS011;35615;41.410;2.194;2022-10-16T05:00:27;30.60;;;16.92;;
49396;SDS011;35615;41.410;2.194;2022-10-16T05:02:55;37.58;;;19.65;;
49396;SDS011;35615;41.410;2.194;2022-10-16T05:05:23;30.10;;;18.17;;
49396;SDS011;35615;41.410;2.194;2022-10-16T05:07:51;36.15;;;18.90;;
49396;SDS011;35615;41.410;2.194;2022-10-16T05:10:18;33.33;;;18.80;;
49396;SDS011;35615;41.410;2.194;2022-10-16T05:12:46;36.75;;;18.80;;
49396;SDS011;35615;41.410;2.194;2022-10-16T05:15:14;33.90;;;19.08;;
49396;SDS011;35615;41.410;2.194;2022-10-16T05:17:45;31.48;;;19.38;;
49396;SDS011;35615;41.410;2.194;2022-10-16T05:20:16;33.90;;;18.88;;
49396;SDS011;35615;41.410;2.194;2022-10-16T05:22:43;31.70;;;17.88;;
49396;SDS011;35615;41.410;2.194;2022-10-16T05:25:12;37.00;;;18.48;;
49396;SDS011;35615;41.410;2.194;2022-10-16T05:27:39;30.35;;;18.88;;
49396;SDS011;35615;41.410;2.194;2022-10-16T05:30:08;36.05;;;18.05;;
49396;SDS011;35615;41.410;2.194;2022-10-16T05:32:39;34.58;;;19.10;;
49396;SDS011;35615;41.410;2.194;2022-10-16T05:35:07;31.15;;;19.05;;
49396;SDS011;35615;41.410;2.194;2022-10-16T05:37:38;30.73;;;19.88;;
49396;SDS011;35615;41.410;2.194;2022-10-16T05:40:06;39.00;;;21.73;;
49396;SDS011;35615;41.410;2.194;2022-10-16T05:42:35;35.75;;;19.02;;
49396;SDS011;35615;41.410;2.194;2022-10-16T05:45:04;38.63;;;19.27;;
49396;SDS011;35615;41.410;2.194;2022-10-16T05:47:33;31.63;;;17.95;;
49396;SDS011;35615;41.410;2.194;2022-10-16T05:50:03;32.03;;;18.92;;
49396;SDS011;35615;41.410;2.194;2022-10-16T05:52:33;35.13;;;17.65;;
49396;SDS011;35615;41.410;2.194;2022-10-16T05:55:02;31.98;;;18.63;;
49396;SDS011;35615;41.410;2.194;2022-10-16T05:57:36;29.38;;;17.48;;
49396;SDS011;35615;41.410;2.194;2022-10-16T06:00:03;34.25;;;17.40;;
49396;SDS011;35615;41.410;2.194;2022-10-16T06:02:40;27.45;;;16.33;;
49396;SDS011;35615;41.410;2.194;2022-10-16T06:05:10;33.22;;;15.95;;
49396;SDS011;35615;41.410;2.194;2022-10-16T06:07:39;28.95;;;15.88;;
49396;SDS011;35615;41.410;2.194;2022-10-16T06:10:07;26.23;;;15.65;;
49396;SDS011;35615;41.410;2.194;2022-10-16T06:12:36;27.95;;;15.80;;
49396;SDS011;35615;41.410;2.194;2022-10-16T06:15:05;28.10;;;15.23;;
49396;SDS011;35615;41.410;2.194;2022-10-16T06:17:36;28.02;;;15.57;;
49396;SDS011;35615;41.410;2.194;2022-10-16T06:20:04;31.98;;;15.02;;
49396;SDS011;35615;41.410;2.194;2022-10-16T06:22:36;20.67;;;13.35;;
49396;SDS011;35615;41.410;2.194;2022-10-16T06:25:08;22.48;;;13.45;;
49396;SDS011;35615;41.410;2.194;2022-10-16T06:27:36;21.58;;;13.35;;
49396;SDS011;35615;41.410;2.194;2022-10-16T06:30:09;25.92;;;13.93;;
49396;SDS011;35615;41.410;2.194;2022-10-16T06:32:39;22.88;;;12.98;;
49396;SDS011;35615;41.410;2.194;2022-10-16T06:35:07;22.67;;;14.50;;
49396;SDS011;35615;41.410;2.194;2022-10-16T06:37:37;20.67;;;12.43;;
49396;SDS011;35615;41.410;2.194;2022-10-16T06:40:07;19.20;;;11.75;;
49396;SDS011;35615;41.410;2.194;2022-10-16T06:42:36;16.55;;;12.10;;
49396;SDS011;35615;41.410;2.194;2022-10-16T06:45:09;28.33;;;11.50;;
49396;SDS011;35615;41.410;2.194;2022-10-16T06:47:38;20.52;;;11.98;;
49396;SDS011;35615;41.410;2.194;2022-10-16T06:50:07;18.92;;;11.45;;
49396;SDS011;35615;41.410;2.194;2022-10-16T06:52:35;15.60;;;10.63;;
49396;SDS011;35615;41.410;2.194;2022-10-16T06:55:09;17.33;;;11.27;;
49396;SDS011;35615;41.410;2.194;2022-10-16T06:57:39;18.55;;;11.07;;
49396;SDS011;35615;41.410;2.194;2022-10-16T07:00:06;19.05;;;11.52;;
49396;SDS011;35615;41.410;2.194;2022-10-16T07:02:40;17.35;;;11.23;;
49396;SDS011;35615;41.410;2.194;2022-10-16T07:05:17;25.70;;;11.70;;
49396;SDS011;35615;41.410;2.194;2022-10-16T07:07:49;18.10;;;11.35;;
49396;SDS011;35615;41.410;2.194;2022-10-16T07:10:20;20.80;;;11.93;;
49396;SDS011;35615;41.410;2.194;2022-10-16T07:12:53;20.98;;;12.60;;
49396;SDS011;35615;41.410;2.194;2022-10-16T07:15:24;17.67;;;12.63;;
49396;SDS011;35615;41.410;2.194;2022-10-16T07:17:55;17.25;;;10.68;;
49396;SDS011;35615;41.410;2.194;2022-10-16T07:20:40;24.45;;;12.65;;
49396;SDS011;35615;41.410;2.194;2022-10-16T07:23:14;25.85;;;12.93;;
49396;SDS011;35615;41.410;2.194;2022-10-16T07:26:01;18.65;;;11.05;;
49396;SDS011;35615;41.410;2.194;2022-10-16T07:28:37;16.25;;;11.73;;
49396;SDS011;35615;41.410;2.194;2022-10-16T07:31:37;21.00;;;11.82;;
49396;SDS011;35615;41.410;2.194;2022-10-16T07:34:18;19.13;;;11.40;;
49396;SDS011;35615;41.410;2.194;2022-10-16T07:36:56;28.55;;;12.77;;
49396;SDS011;35615;41.410;2.194;2022-10-16T07:39:38;26.75;;;14.02;;
49396;SDS011;35615;41.410;2.194;2022-10-16T07:42:09;23.27;;;12.18;;
49396;SDS011;35615;41.410;2.194;2022-10-16T07:45:02;20.98;;;11.60;;
49396;SDS011;35615;41.410;2.194;2022-10-16T07:47:36;16.48;;;11.30;;
49396;SDS011;35615;41.410;2.194;2022-10-16T07:50:14;24.23;;;11.63;;
49396;SDS011;35615;41.410;2.194;2022-10-16T07:52:54;19.98;;;10.75;;
49396;SDS011;35615;41.410;2.194;2022-10-16T07:55:40;22.30;;;10.93;;
49396;SDS011;35615;41.410;2.194;2022-10-16T07:58:20;20.48;;;11.63;;
49396;SDS011;35615;41.410;2.194;2022-10-16T08:00:55;17.92;;;10.25;;
49396;SDS011;35615;41.410;2.194;2022-10-16T08:03:32;22.77;;;10.93;;
49396;SDS011;35615;41.410;2.194;2022-10-16T08:06:17;24.95;;;11.68;;
49396;SDS011;35615;41.410;2.194;2022-10-16T08:08:59;22.90;;;11.48;;
49396;SDS011;35615;41.410;2.194;2022-10-16T08:11:49;19.33;;;9.95;;
49396;SDS011;35615;41.410;2.194;2022-10-16T08:14:39;22.23;;;11.43;;
49396;SDS011;35615;41.410;2.194;2022-10-16T08:17:24;24.65;;;12.15;;
49396;SDS011;35615;41.410;2.194;2022-10-16T08:20:07;16.02;;;9.95;;
49396;SDS011;35615;41.410;2.194;2022-10-16T08:22:58;15.60;;;9.90;;
49396;SDS011;35615;41.410;2.194;2022-10-16T08:25:44;16.58;;;10.07;;
49396;SDS011;35615;41.410;2.194;2022-10-16T08:28:18;21.42;;;10.55;;
49396;SDS011;35615;41.410;2.194;2022-10-16T08:31:06;24.20;;;11.23;;
49396;SDS011;35615;41.410;2.194;2022-10-16T08:34:01;18.92;;;10.15;;
49396;SDS011;35615;41.410;2.194;2022-10-16T08:36:36;20.35;;;10.05;;
49396;SDS011;35615;41.410;2.194;2022-10-16T08:39:09;14.43;;;9.18;;
49396;SDS011;35615;41.410;2.194;2022-10-16T08:41:59;18.50;;;10.45;;
49396;SDS011;35615;41.410;2.194;2022-10-16T08:50:55;20.05;;;10.02;;
49396;SDS011;35615;41.410;2.194;2022-10-16T08:53:27;22.33;;;10.57;;
49396;SDS011;35615;41.410;2.194;2022-10-16T08:56:14;23.10;;;10.20;;
49396;SDS011;35615;41.410;2.194;2022-10-16T08:58:52;19.73;;;10.02;;
49396;SDS011;35615;41.410;2.194;2022-10-16T09:02:02;21.05;;;10.48;;
49396;SDS011;35615;41.410;2.194;2022-10-16T09:17:29;18.40;;;8.57;;
49396;SDS011;35615;41.410;2.194;2022-10-16T09:25:32;14.93;;;7.75;;
49396;SDS011;35615;41.410;2.194;2022-10-16T09:28:02;13.60;;;7.95;;
49396;SDS011;35615;41.410;2.194;2022-10-16T09:30:36;13.35;;;8.45;;
49396;SDS011;35615;41.410;2.194;2022-10-16T09:36:57;15.98;;;7.38;;
49396;SDS011;35615;41.410;2.194;2022-10-16T09:39:41;17.52;;;8.90;;
49396;SDS011;35615;41.410;2.194;2022-10-16T09:42:24;17.50;;;9.35;;
49396;SDS011;35615;41.410;2.194;2022-10-16T09:45:19;22.42;;;9.27;;
49396;SDS011;35615;41.410;2.194;2022-10-16T09:47:56;14.65;;;7.75;;
49396;SDS011;35615;41.410;2.194;2022-10-16T09:53:18;14.90;;;8.17;;
49396;SDS011;35615;41.410;2.194;2022-10-16T09:55:58;15.57;;;7.57;;
49396;SDS011;35615;41.410;2.194;2022-10-16T09:59:00;27.98;;;12.25;;
49396;SDS011;35615;41.410;2.194;2022-10-16T10:01:55;20.30;;;10.20;;
49396;SDS011;35615;41.410;2.194;2022-10-16T10:04:50;12.32;;;6.15;;
49396;SDS011;35615;41.410;2.194;2022-10-16T10:07:42;17.92;;;5.22;;
49396;SDS011;35615;41.410;2.194;2022-10-16T10:10:33;12.30;;;6.10;;
49396;SDS011;35615;41.410;2.194;2022-10-16T10:13:20;15.43;;;6.10;;
49396;SDS011;35615;41.410;2.194;2022-10-16T10:15:59;9.90;;;5.07;;
49396;SDS011;35615;41.410;2.194;2022-10-16T10:18:30;16.15;;;5.22;;
49396;SDS011;35615;41.410;2.194;2022-10-16T10:21:13;30.15;;;7.00;;
49396;SDS011;35615;41.410;2.194;2022-10-16T10:23:56;10.93;;;5.18;;
49396;SDS011;35615;41.410;2.194;2022-10-16T10:26:36;12.38;;;5.68;;
49396;SDS011;35615;41.410;2.194;2022-10-16T10:32:09;9.40;;;4.40;;
49396;SDS011;35615;41.410;2.194;2022-10-16T10:38:06;11.02;;;4.78;;
49396;SDS011;35615;41.410;2.194;2022-10-16T10:41:10;11.83;;;5.07;;
49396;SDS011;35615;41.410;2.194;2022-10-16T11:02:43;9.98;;;3.95;;
49396;SDS011;35615;41.410;2.194;2022-10-16T11:08:51;11.65;;;4.38;;
49396;SDS011;35615;41.410;2.194;2022-10-16T11:11:50;10.68;;;5.75;;
49396;SDS011;35615;41.410;2.194;2022-10-16T11:14:30;15.07;;;5.93;;
49396;SDS011;35615;41.410;2.194;2022-10-16T11:17:21;10.43;;;4.38;;
49396;SDS011;35615;41.410;2.194;2022-10-16T11:20:14;6.35;;;4.05;;
49396;SDS011;35615;41.410;2.194;2022-10-16T11:26:05;9.65;;;4.00;;
49396;SDS011;35615;41.410;2.194;2022-10-16T11:28:59;7.03;;;3.53;;
49396;SDS011;35615;41.410;2.194;2022-10-16T11:32:11;6.10;;;3.63;;
49396;SDS011;35615;41.410;2.194;2022-10-16T11:35:14;10.30;;;3.78;;
49396;SDS011;35615;41.410;2.194;2022-10-16T11:54:18;8.23;;;3.08;;
49396;SDS011;35615;41.410;2.194;2022-10-16T11:56:55;7.90;;;3.13;;
49396;SDS011;35615;41.410;2.194;2022-10-16T12:07:05;12.88;;;4.57;;
49396;SDS011;35615;41.410;2.194;2022-10-16T12:09:49;14.43;;;3.35;;
49396;SDS011;35615;41.410;2.194;2022-10-16T12:12:50;8.00;;;3.70;;
49396;SDS011;35615;41.410;2.194;2022-10-16T12:15:35;11.02;;;3.17;;
49396;SDS011;35615;41.410;2.194;2022-10-16T12:18:45;6.55;;;3.05;;
49396;SDS011;35615;41.410;2.194;2022-10-16T12:21:18;10.57;;;2.97;;
49396;SDS011;35615;41.410;2.194;2022-10-16T12:27:26;9.05;;;2.90;;
49396;SDS011;35615;41.410;2.194;2022-10-16T12:30:14;11.65;;;2.60;;
49396;SDS011;35615;41.410;2.194;2022-10-16T12:33:15;11.38;;;4.22;;
49396;SDS011;35615;41.410;2.194;2022-10-16T12:36:36;6.78;;;3.25;;
49396;SDS011;35615;41.410;2.194;2022-10-16T12:39:21;9.75;;;3.70;;
49396;SDS011;35615;41.410;2.194;2022-10-16T12:42:22;9.95;;;4.45;;
49396;SDS011;35615;41.410;2.194;2022-10-16T12:48:22;9.23;;;3.38;;
49396;SDS011;35615;41.410;2.194;2022-10-16T12:54:38;9.45;;;2.95;;
49396;SDS011;35615;41.410;2.194;2022-10-16T12:57:26;9.82;;;3.22;;
49396;SDS011;35615;41.410;2.194;2022-10-16T13:27:59;11.00;;;3.67;;
49396;SDS011;35615;41.410;2.194;2022-10-16T13:31:00;9.30;;;4.32;;
49396;SDS011;35615;41.410;2.194;2022-10-16T13:33:35;16.27;;;6.22;;
49396;SDS011;35615;41.410;2.194;2022-10-16T13:39:50;13.60;;;6.28;;
49396;SDS011;35615;41.410;2.194;2022-10-16T13:42:26;6.85;;;4.38;;
49396;SDS011;35615;41.410;2.194;2022-10-16T13:45:17;12.68;;;5.32;;
49396;SDS011;35615;41.410;2.194;2022-10-16T13:48:03;12.00;;;3.97;;
49396;SDS011;35615;41.410;2.194;2022-10-16T13:51:00;5.40;;;2.50;;
49396;SDS011;35615;41.410;2.194;2022-10-16T13:53:43;7.93;;;2.50;;
49396;SDS011;35615;41.410;2.194;2022-10-16T13:56:33;5.40;;;2.70;;
49396;SDS011;35615;41.410;2.194;2022-10-16T14:05:07;5.45;;;2.83;;
49396;SDS011;35615;41.410;2.194;2022-10-16T14:07:42;6.88;;;2.40;;
49396;SDS011;35615;41.410;2.194;2022-10-16T14:10:27;16.88;;;3.13;;
49396;SDS011;35615;41.410;2.194;2022-10-16T14:13:12;7.68;;;2.75;;
49396;SDS011;35615;41.410;2.194;2022-10-16T14:16:05;6.70;;;2.63;;
49396;SDS011;35615;41.410;2.194;2022-10-16T14:19:15;9.60;;;2.78;;
49396;SDS011;35615;41.410;2.194;2022-10-16T14:22:00;9.88;;;2.70;;
49396;SDS011;35615;41.410;2.194;2022-10-16T14:28:21;8.43;;;2.58;;
49396;SDS011;35615;41.410;2.194;2022-10-16T14:30:59;9.10;;;2.85;;
49396;SDS011;35615;41.410;2.194;2022-10-16T14:33:57;9.88;;;2.97;;
49396;SDS011;35615;41.410;2.194;2022-10-16T14:36:47;6.32;;;2.10;;
49396;SDS011;35615;41.410;2.194;2022-10-16T14:42:32;9.02;;;2.53;;
49396;SDS011;35615;41.410;2.194;2022-10-16T14:45:13;9.98;;;2.92;;
49396;SDS011;35615;41.410;2.194;2022-10-16T14:48:00;5.57;;;2.08;;
49396;SDS011;35615;41.410;2.194;2022-10-16T14:50:50;10.30;;;3.20;;
49396;SDS011;35615;41.410;2.194;2022-10-16T14:53:44;13.45;;;3.00;;
49396;SDS011;35615;41.410;2.194;2022-10-16T15:05:16;7.05;;;2.17;;
49396;SDS011;35615;41.410;2.194;2022-10-16T15:10:56;10.60;;;2.78;;
49396;SDS011;35615;41.410;2.194;2022-10-16T15:13:42;8.07;;;2.28;;
49396;SDS011;35615;41.410;2.194;2022-10-16T15:16:33;9.73;;;2.53;;
49396;SDS011;35615;41.410;2.194;2022-10-16T15:19:11;14.07;;;3.17;;
49396;SDS011;35615;41.410;2.194;2022-10-16T15:24:39;6.50;;;2.47;;
49396;SDS011;35615;41.410;2.194;2022-10-16T15:30:09;8.30;;;3.17;;
49396;SDS011;35615;41.410;2.194;2022-10-16T15:33:25;8.18;;;2.50;;
49396;SDS011;35615;41.410;2.194;2022-10-16T15:39:19;20.45;;;3.08;;
49396;SDS011;35615;41.410;2.194;2022-10-16T15:42:00;9.15;;;3.10;;
49396;SDS011;35615;41.410;2.194;2022-10-16T15:44:52;8.40;;;2.08;;
49396;SDS011;35615;41.410;2.194;2022-10-16T15:50:14;11.85;;;2.67;;
49396;SDS011;35615;41.410;2.194;2022-10-16T15:52:49;12.52;;;2.50;;
49396;SDS011;35615;41.410;2.194;2022-10-16T15:55:21;12.80;;;2.50;;
49396;SDS011;35615;41.410;2.194;2022-10-16T15:58:08;10.40;;;2.78;;
49396;SDS011;35615;41.410;2.194;2022-10-16T16:03:38;13.43;;;2.95;;
49396;SDS011;35615;41.410;2.194;2022-10-16T16:06:15;8.98;;;2.70;;
49396;SDS011;35615;41.410;2.194;2022-10-16T16:08:54;16.20;;;3.40;;
49396;SDS011;35615;41.410;2.194;2022-10-16T16:11:27;7.03;;;2.30;;
49396;SDS011;35615;41.410;2.194;2022-10-16T16:14:00;8.23;;;2.95;;
49396;SDS011;35615;41.410;2.194;2022-10-16T16:16:34;10.40;;;2.72;;
49396;SDS011;35615;41.410;2.194;2022-10-16T16:19:17;7.68;;;2.88;;
49396;SDS011;35615;41.410;2.194;2022-10-16T16:22:06;5.22;;;2.80;;
49396;SDS011;35615;41.410;2.194;2022-10-16T16:27:38;10.68;;;2.60;;
49396;SDS011;35615;41.410;2.194;2022-10-16T16:33:24;7.00;;;3.10;;
49396;SDS011;35615;41.410;2.194;2022-10-16T16:36:14;5.45;;;2.25;;
49396;SDS011;35615;41.410;2.194;2022-10-16T16:39:10;9.30;;;3.40;;
49396;SDS011;35615;41.410;2.194;2022-10-16T16:48:23;5.50;;;2.67;;
49396;SDS011;35615;41.410;2.194;2022-10-16T16:51:12;14.85;;;2.70;;
49396;SDS011;35615;41.410;2.194;2022-10-16T16:53:53;12.57;;;3.40;;
49396;SDS011;35615;41.410;2.194;2022-10-16T16:56:39;9.13;;;3.08;;
49396;SDS011;35615;41.410;2.194;2022-10-16T16:59:43;8.98;;;2.50;;
49396;SDS011;35615;41.410;2.194;2022-10-16T17:02:29;9.63;;;3.25;;
49396;SDS011;35615;41.410;2.194;2022-10-16T17:04:58;14.70;;;3.00;;
49396;SDS011;35615;41.410;2.194;2022-10-16T17:07:45;11.98;;;2.80;;
49396;SDS011;35615;41.410;2.194;2022-10-16T17:14:03;15.15;;;2.95;;
49396;SDS011;35615;41.410;2.194;2022-10-16T17:16:51;6.93;;;2.97;;
49396;SDS011;35615;41.410;2.194;2022-10-16T17:23:06;12.10;;;3.90;;
49396;SDS011;35615;41.410;2.194;2022-10-16T17:26:18;11.77;;;3.92;;
49396;SDS011;35615;41.410;2.194;2022-10-16T17:29:13;17.50;;;3.72;;
49396;SDS011;35615;41.410;2.194;2022-10-16T17:32:17;10.15;;;3.88;;
49396;SDS011;35615;41.410;2.194;2022-10-16T17:34:51;10.88;;;3.47;;
49396;SDS011;35615;41.410;2.194;2022-10-16T17:40:28;9.55;;;3.10;;
49396;SDS011;35615;41.410;2.194;2022-10-16T17:43:27;8.70;;;3.35;;
49396;SDS011;35615;41.410;2.194;2022-10-16T17:46:25;9.98;;;3.47;;
49396;SDS011;35615;41.410;2.194;2022-10-16T17:49:12;7.75;;;2.75;;
49396;SDS011;35615;41.410;2.194;2022-10-16T17:52:00;10.85;;;2.85;;
49396;SDS011;35615;41.410;2.194;2022-10-16T17:55:31;13.07;;;3.80;;
49396;SDS011;35615;41.410;2.194;2022-10-16T17:58:15;9.65;;;3.78;;
49396;SDS011;35615;41.410;2.194;2022-10-16T18:01:00;8.88;;;3.55;;
49396;SDS011;35615;41.410;2.194;2022-10-16T18:03:55;10.13;;;5.07;;
49396;SDS011;35615;41.410;2.194;2022-10-16T18:06:37;14.05;;;3.88;;
49396;SDS011;35615;41.410;2.194;2022-10-16T18:12:12;12.25;;;3.63;;
49396;SDS011;35615;41.410;2.194;2022-10-16T18:14:46;14.02;;;3.10;;
49396;SDS011;35615;41.410;2.194;2022-10-16T18:17:22;12.95;;;3.83;;
49396;SDS011;35615;41.410;2.194;2022-10-16T18:19:55;5.82;;;2.65;;
49396;SDS011;35615;41.410;2.194;2022-10-16T18:22:23;8.45;;;3.15;;
49396;SDS011;35615;41.410;2.194;2022-10-16T18:24:59;8.98;;;3.33;;
49396;SDS011;35615;41.410;2.194;2022-10-16T18:27:40;9.38;;;3.33;;
49396;SDS011;35615;41.410;2.194;2022-10-16T18:30:10;9.95;;;3.70;;
49396;SDS011;35615;41.410;2.194;2022-10-16T18:32:48;7.93;;;2.53;;
49396;SDS011;35615;41.410;2.194;2022-10-16T18:35:19;11.10;;;3.10;;
49396;SDS011;35615;41.410;2.194;2022-10-16T18:37:50;11.57;;;3.80;;
49396;SDS011;35615;41.410;2.194;2022-10-16T18:40:25;13.55;;;3.15;;
49396;SDS011;35615;41.410;2.194;2022-10-16T18:43:08;10.38;;;3.88;;
49396;SDS011;35615;41.410;2.194;2022-10-16T18:46:00;7.95;;;4.25;;
49396;SDS011;35615;41.410;2.194;2022-10-16T18:48:32;10.88;;;3.67;;
49396;SDS011;35615;41.410;2.194;2022-10-16T18:51:18;8.38;;;3.58;;
49396;SDS011;35615;41.410;2.194;2022-10-16T18:54:01;8.18;;;3.85;;
49396;SDS011;35615;41.410;2.194;2022-10-16T18:56:34;8.70;;;4.40;;
49396;SDS011;35615;41.410;2.194;2022-10-16T18:59:06;11.23;;;4.55;;
49396;SDS011;35615;41.410;2.194;2022-10-16T19:01:36;13.55;;;4.88;;
49396;SDS011;35615;41.410;2.194;2022-10-16T19:07:21;13.57;;;4.00;;
49396;SDS011;35615;41.410;2.194;2022-10-16T19:09:58;10.02;;;3.80;;